Eindhoven, Netherlands

4:07 AM CEST on April 25, 2018 (GMT +0200)
Eindhoven Air Base

Weather History for EHEH - May, 2012

Change the Weather History Date:

Saturday, May 26, 2012

  Actual Average Record
Temperature  
Mean Temperature 66 °F -  
Max Temperature 77 °F 68 °F 84 °F (2005)
Min Temperature 55 °F 49 °F 39 °F (1999)
Cooling Degree Days 1    
Growing Degree Days 16 (Base 50)    
Moisture  
Dew Point 46 °F    
Average Humidity 45    
Maximum Humidity 82    
Minimum Humidity 20    
Precipitation  
Precipitation 0.00 in - - ()
Sea Level Pressure  
Sea Level Pressure 30.15 in    
Wind  
Wind Speed 8 mph ()    
Max Wind Speed 16 mph    
Max Gust Speed 28 mph    
Visibility 6.6 miles    
Events      
Averages and records for this station are not official NWS values.
T = Trace of Precipitation, MM = Missing Value Source: Averaged Metar Reports

Daily Weather History Graph

Daily Weather History Graph

Search for Another Location

Airport or City:

Astronomy

May. 26, 2012 Rise Set
Actual Time 5:32 AM CEST 9:39 PM CEST
Civil Twilight 4:48 AM CEST 10:23 PM CEST
Nautical Twilight 3:45 AM CEST 11:27 PM CEST
Astronomical Twilight 2:07 AM CEST 1:03 AM CEST
Moon 10:32 AM CEST (5/26) 12:51 AM CEST (5/26)
Length of Visible Light 17h 35m
Length of Day
16h 06m
Waxing Crescent, 26% of the Moon is Illuminated
May 26
Waxing Crescent
May 28
First Quarter
Jun 4
Full
Jun 11
Last Quarter
Jun 19
New

Hourly Weather History & Observations

Time (CEST) Temp. Dew Point Humidity Pressure Visibility Wind Dir Wind Speed Gust Speed Precip Events Conditions
12:25 AM 66.2 °F 46.4 °F 49% 30.18 in 6.2 mi ENE 8.1 mph - N/A   Unknown
12:55 AM 64.4 °F 46.4 °F 52% 30.18 in 6.2 mi East 4.6 mph - N/A   Unknown
1:25 AM 64.4 °F 46.4 °F 52% 30.18 in 6.2 mi ENE 6.9 mph - N/A   Unknown
1:55 AM 64.4 °F 48.2 °F 56% 30.18 in 6.2 mi ENE 8.1 mph - N/A   Partly Cloudy
2:00 AM 62 °F 48 °F 49% 30.20 in 28 mi NE 6.7 mph - -   Scattered Clouds
2:25 AM 59.0 °F 48.2 °F 67% 30.18 in 6.2 mi NE 6.9 mph - N/A   Unknown
2:55 AM 57.2 °F 50.0 °F 77% 30.18 in 6.2 mi NE 6.9 mph - N/A   Unknown
3:25 AM 57.2 °F 50.0 °F 77% 30.18 in 6.2 mi NE 6.9 mph - N/A   Unknown
3:55 AM 55.4 °F 50.0 °F 82% 30.18 in 6.2 mi NE 6.9 mph - N/A   Unknown
4:25 AM 57.2 °F 50.0 °F 77% 30.18 in 6.2 mi NE 6.9 mph - N/A   Unknown
4:55 AM 57.2 °F 50.0 °F 77% 30.18 in 6.2 mi NE 6.9 mph - N/A   Unknown
5:00 AM 58 °F 50 °F 66% 30.19 in 19 mi NE 6.7 mph - -  
5:25 AM 57.2 °F 50.0 °F 77% 30.18 in 6.2 mi ENE 5.8 mph - N/A   Unknown
5:55 AM 59.0 °F 50.0 °F 72% 30.18 in 6.2 mi ENE 5.8 mph - N/A   Unknown
6:25 AM 59.0 °F 50.0 °F 72% 30.18 in 6.2 mi ENE 6.9 mph - N/A   Unknown
6:55 AM 60.8 °F 48.2 °F 63% 30.18 in 6.2 mi ENE 6.9 mph - N/A   Unknown
7:07 AM 60.8 °F 48.2 °F 63% 30.18 in 6.2 mi ENE 6.9 mph - N/A   Unknown
7:09 AM 60.8 °F 48.2 °F 63% 30.18 in 6.2 mi ENE 8.1 mph - N/A   Unknown
7:25 AM 60.8 °F 48.2 °F 63% 30.18 in 6.2 mi ENE 8.1 mph - N/A   Partly Cloudy
7:55 AM 62.6 °F 48.2 °F 59% 30.18 in 6.2 mi ENE 9.2 mph - N/A   Unknown
8:00 AM 63 °F 48 °F 47% 30.20 in 25 mi ENE 8.9 mph - -  
8:25 AM 64.4 °F 46.4 °F 52% 30.18 in 6.2 mi ENE 8.1 mph - N/A   Unknown
8:55 AM 66.2 °F 48.2 °F 52% 30.18 in 6.2 mi East 5.8 mph - N/A   Unknown
9:25 AM 68.0 °F 48.2 °F 49% 30.18 in 6.2 mi ENE 6.9 mph - N/A   Unknown
9:28 AM 68.0 °F 46.4 °F 46% 30.18 in 6.2 mi East 6.9 mph - N/A   Unknown
9:55 AM 69.8 °F 46.4 °F 43% 30.18 in 6.2 mi East 8.1 mph - N/A   Unknown
10:25 AM 71.6 °F 46.4 °F 41% 30.18 in 6.2 mi East 8.1 mph - N/A   Partly Cloudy
10:55 AM 71.6 °F 44.6 °F 38% 30.18 in 6.2 mi East 9.2 mph - N/A   Unknown
11:00 AM 72 °F 48 °F 32% 30.19 in 22 mi East 8.9 mph - -  
11:25 AM 71.6 °F 44.6 °F 38% 30.18 in 6.2 mi East 10.4 mph - N/A   Partly Cloudy
11:55 AM 73.4 °F 42.8 °F 33% 30.18 in 6.2 mi East 12.7 mph - N/A   Partly Cloudy
12:05 PM 73.4 °F 44.6 °F 36% 30.18 in 6.2 mi ENE 13.8 mph - N/A   Partly Cloudy
12:25 PM 73.4 °F 44.6 °F 36% 30.15 in 6.2 mi ENE 16.1 mph - N/A   Unknown
12:55 PM 75.2 °F 42.8 °F 31% 30.15 in 6.2 mi East 11.5 mph - N/A   Unknown
1:19 PM 75.2 °F 42.8 °F 31% 30.15 in 6.2 mi East 12.7 mph - N/A   Partly Cloudy
1:25 PM 75.2 °F 42.8 °F 31% 30.15 in 6.2 mi East 11.5 mph - N/A   Partly Cloudy
1:55 PM 75.2 °F 42.8 °F 31% 30.15 in 6.2 mi ENE 16.1 mph - N/A   Unknown
2:00 PM 76 °F 43 °F 20% 30.16 in 22 mi ENE 13.4 mph - -   Scattered Clouds
2:25 PM 75.2 °F 44.6 °F 34% 30.15 in 6.2 mi East 12.7 mph 24.2 mph N/A   Partly Cloudy
2:55 PM 77.0 °F 41.0 °F 28% 30.12 in 6.2 mi ENE 15.0 mph 27.6 mph N/A   Partly Cloudy
3:08 PM 77.0 °F 42.8 °F 29% 30.12 in 3.7 mi East 13.8 mph - N/A   Haze
3:12 PM 77.0 °F 44.6 °F 32% 30.12 in 6.2 mi East 12.7 mph 24.2 mph N/A   Scattered Clouds
3:25 PM 77.0 °F 44.6 °F 32% 30.12 in 6.2 mi ENE 16.1 mph - N/A   Unknown
3:55 PM 77.0 °F 42.8 °F 29% 30.12 in 6.2 mi ENE 13.8 mph - N/A   Partly Cloudy
4:25 PM 77.0 °F 44.6 °F 32% 30.12 in 6.2 mi East 12.7 mph - N/A   Unknown
4:55 PM 78.8 °F 44.6 °F 30% 30.12 in 6.2 mi ENE 13.8 mph - N/A   Unknown
5:00 PM 77 °F 44 °F 20% 30.13 in 19 mi ENE 15.7 mph - -  
5:25 PM 77.0 °F 44.6 °F 32% 30.09 in 6.2 mi ENE 13.8 mph - N/A   Partly Cloudy
5:55 PM 77.0 °F 46.4 °F 34% 30.09 in 6.2 mi East 10.4 mph - N/A   Unknown
6:25 PM 77.0 °F 46.4 °F 34% 30.09 in 6.2 mi East 12.7 mph - N/A   Unknown
6:55 PM 77.0 °F 46.4 °F 34% 30.09 in 6.2 mi East 11.5 mph - N/A   Unknown
7:25 PM 77.0 °F 44.6 °F 32% 30.09 in 6.2 mi ENE 11.5 mph - N/A   Unknown
7:55 PM 75.2 °F 44.6 °F 34% 30.09 in 6.2 mi ENE 12.7 mph - N/A   Partly Cloudy
8:00 PM 76 °F 44 °F 22% 30.11 in 25 mi ENE 13.4 mph - -   Scattered Clouds
8:25 PM 75.2 °F 44.6 °F 34% 30.09 in 6.2 mi ENE 12.7 mph - N/A   Unknown
8:55 PM 73.4 °F 44.6 °F 36% 30.09 in 6.2 mi ENE 11.5 mph - N/A   Unknown
9:25 PM 73.4 °F 44.6 °F 36% 30.09 in 6.2 mi ENE 10.4 mph - N/A   Partly Cloudy
9:55 PM 71.6 °F 46.4 °F 41% 30.09 in 6.2 mi ENE 8.1 mph - N/A   Unknown
10:25 PM 69.8 °F 46.4 °F 43% 30.09 in 6.2 mi ENE 9.2 mph - N/A   Unknown
10:55 PM 69.8 °F 46.4 °F 43% 30.12 in 6.2 mi ENE 9.2 mph - N/A   Unknown
11:00 PM 69 °F 46 °F 32% 30.12 in 28 mi ENE 8.9 mph - -  
11:25 PM 69.8 °F 46.4 °F 43% 30.12 in 6.2 mi ENE 11.5 mph - N/A   Unknown
11:55 PM 68.0 °F 46.4 °F 46% 30.12 in 6.2 mi ENE 10.4 mph - N/A   Unknown